Snav Antares — IINQ — position and weather

sailwx.info

Track history (hours):
 
Tides and Currents Weather Stations Pressure Air Temp Water Temp Dewpoint Dewpoint Depression Visibility Wind Speed Wind Dir Waves Ship Positions

Snav Antares

Last reported at 2017-Jul-27 11:43 UTC. Time now 2017-Jul-28 08:50 UTC.
Position N 40°46' E 014°02'.

Length 42 m; draft 1.6 m.

Type: Passenger vessel. MMSI: 247058900.

Date/timePositionNaut miles runAvg speedWind from/ knotsBaromVisibWave heightAir tempDewpointWater temp
2017-Jul-27 11:43N 40°46' E 014°02'0 0.0
2017-Jul-27 11:07N 40°46' E 014°02'0 0.0
2017-Jul-27 10:55N 40°46' E 014°02'0 0.0
2017-Jul-27 10:25N 40°46' E 014°02'0 0.0
2017-Jul-27 09:55N 40°46' E 014°02'0 0.0
2017-Jul-27 09:25N 40°46' E 014°02'  
2017-Jul-24 16:06N 40°43' E 014°17'326.0
2017-Jul-24 16:00N 40°40' E 014°16'3 0.6
2017-Jul-24 11:11N 40°38' E 014°17'16 4.2
2017-Jul-24 07:22N 40°46' E 013°59'5 0.3
2017-Jul-23 17:32N 40°46' E 014°05'5 4.2
2017-Jul-23 16:26N 40°47' E 014°11'917.2
2017-Jul-23 15:55N 40°46' E 013°60'4 0.9
2017-Jul-23 11:39N 40°45' E 013°55'1 7.5
2017-Jul-23 11:30N 40°45' E 013°56'15 0.8
2017-Jul-22 16:34N 40°49' E 014°16'326.5
2017-Jul-22 16:28N 40°47' E 014°12'916.1
2017-Jul-22 15:53N 40°46' E 014°00'1 1.7
2017-Jul-22 15:13N 40°46' E 013°59'3 9.4
2017-Jul-22 14:56N 40°46' E 014°02'11 6.4
2017-Jul-22 13:16N 40°50' E 014°15'1 2.0
2017-Jul-22 12:47N 40°50' E 014°17'724.8
2017-Jul-22 12:30N 40°47' E 014°09'713.7
2017-Jul-22 12:00N 40°46' E 013°60'1 1.2
2017-Jul-22 11:27N 40°46' E 013°59'814.3
2017-Jul-22 10:53N 40°47' E 014°10'5 2.1
2017-Jul-22 08:43N 40°48' E 014°15'626.6
2017-Jul-22 08:30N 40°47' E 014°08'1 0.5
2017-Jul-22 06:53N 40°47' E 014°09'6 8.5
2017-Jul-22 06:08N 40°50' E 014°16'419.9
2017-Jul-22 05:57N 40°48' E 014°13'11 0.9
2017-Jul-21 18:02N 40°46' E 013°59'217.5
2017-Jul-21 17:55N 40°46' E 014°02'11 9.4
2017-Jul-21 16:42N 40°50' E 014°16'315.3
2017-Jul-21 16:30N 40°48' E 014°13'917.8
2017-Jul-21 16:00N 40°46' E 014°02'1 0.8
2017-Jul-21 15:14N 40°46' E 014°01'2 6.7
2017-Jul-21 14:57N 40°46' E 014°04'1023.9
2017-Jul-21 14:30N 40°50' E 014°17'1 2.1
2017-Jul-21 13:55N 40°50' E 014°15'0 0.3
2017-Jul-21 13:26N 40°50' E 014°15'0 0.2
2017-Jul-21 12:58N 40°50' E 014°15'816.7
2017-Jul-21 12:30N 40°46' E 014°07'6 5.3
2017-Jul-21 11:23N 40°46' E 013°59'513.8
2017-Jul-21 11:00N 40°46' E 014°06'811.9
2017-Jul-21 10:18N 40°50' E 014°15'0 0.0
2017-Jul-21 09:54N 40°50' E 014°15'0 0.0
2017-Jul-21 09:27N 40°50' E 014°15'1 1.0
2017-Jul-21 08:43N 40°50' E 014°16'521.0
2017-Jul-21 08:30N 40°47' E 014°12'3 0.2
2017-Jul-20 17:30N 40°47' E 014°08'2 0.4
2017-Jul-20 12:31N 40°47' E 014°11'122.4
2017-Jul-20 12:29N 40°47' E 014°10'5 0.2
2017-Jul-19 12:59N 40°50' E 014°15'510.4
2017-Jul-19 12:30N 40°47' E 014°11'2 0.1
2017-Jul-18 12:37N 40°48' E 014°14'  
Track history (hours):
 
Tides and Currents Weather Stations Pressure Air Temp Water Temp Dewpoint Dewpoint Depression Visibility Wind Speed Wind Dir Waves Ship Positions

Snav Antares

Last reported at 2017-Jul-27 11:43 UTC. Time now 2017-Jul-28 08:50 UTC.
Position N 40°46' E 014°02'.

Length 42 m; draft 1.6 m.

Type: Passenger vessel. MMSI: 247058900.

Date/timePositionNaut miles runAvg speedWind from/ knotsBaromVisibWave heightAir tempDewpointWater temp
2017-Jul-27 11:43N 40°46' E 014°02'0 0.0
2017-Jul-27 11:07N 40°46' E 014°02'0 0.0
2017-Jul-27 10:55N 40°46' E 014°02'0 0.0
2017-Jul-27 10:25N 40°46' E 014°02'0 0.0
2017-Jul-27 09:55N 40°46' E 014°02'0 0.0
2017-Jul-27 09:25N 40°46' E 014°02'  
2017-Jul-24 16:06N 40°43' E 014°17'326.0
2017-Jul-24 16:00N 40°40' E 014°16'3 0.6
2017-Jul-24 11:11N 40°38' E 014°17'16 4.2
2017-Jul-24 07:22N 40°46' E 013°59'5 0.3
2017-Jul-23 17:32N 40°46' E 014°05'5 4.2
2017-Jul-23 16:26N 40°47' E 014°11'917.2
2017-Jul-23 15:55N 40°46' E 013°60'4 0.9
2017-Jul-23 11:39N 40°45' E 013°55'1 7.5
2017-Jul-23 11:30N 40°45' E 013°56'15 0.8
2017-Jul-22 16:34N 40°49' E 014°16'326.5
2017-Jul-22 16:28N 40°47' E 014°12'916.1
2017-Jul-22 15:53N 40°46' E 014°00'1 1.7
2017-Jul-22 15:13N 40°46' E 013°59'3 9.4
2017-Jul-22 14:56N 40°46' E 014°02'11 6.4
2017-Jul-22 13:16N 40°50' E 014°15'1 2.0
2017-Jul-22 12:47N 40°50' E 014°17'724.8
2017-Jul-22 12:30N 40°47' E 014°09'713.7
2017-Jul-22 12:00N 40°46' E 013°60'1 1.2
2017-Jul-22 11:27N 40°46' E 013°59'814.3
2017-Jul-22 10:53N 40°47' E 014°10'5 2.1
2017-Jul-22 08:43N 40°48' E 014°15'626.6
2017-Jul-22 08:30N 40°47' E 014°08'1 0.5
2017-Jul-22 06:53N 40°47' E 014°09'6 8.5
2017-Jul-22 06:08N 40°50' E 014°16'419.9
2017-Jul-22 05:57N 40°48' E 014°13'11 0.9
2017-Jul-21 18:02N 40°46' E 013°59'217.5
2017-Jul-21 17:55N 40°46' E 014°02'11 9.4
2017-Jul-21 16:42N 40°50' E 014°16'315.3
2017-Jul-21 16:30N 40°48' E 014°13'917.8
2017-Jul-21 16:00N 40°46' E 014°02'1 0.8
2017-Jul-21 15:14N 40°46' E 014°01'2 6.7
2017-Jul-21 14:57N 40°46' E 014°04'1023.9
2017-Jul-21 14:30N 40°50' E 014°17'1 2.1
2017-Jul-21 13:55N 40°50' E 014°15'0 0.3
2017-Jul-21 13:26N 40°50' E 014°15'0 0.2
2017-Jul-21 12:58N 40°50' E 014°15'816.7
2017-Jul-21 12:30N 40°46' E 014°07'6 5.3
2017-Jul-21 11:23N 40°46' E 013°59'513.8
2017-Jul-21 11:00N 40°46' E 014°06'811.9
2017-Jul-21 10:18N 40°50' E 014°15'0 0.0
2017-Jul-21 09:54N 40°50' E 014°15'0 0.0
2017-Jul-21 09:27N 40°50' E 014°15'1 1.0
2017-Jul-21 08:43N 40°50' E 014°16'521.0
2017-Jul-21 08:30N 40°47' E 014°12'3 0.2
2017-Jul-20 17:30N 40°47' E 014°08'2 0.4
2017-Jul-20 12:31N 40°47' E 014°11'122.4
2017-Jul-20 12:29N 40°47' E 014°10'5 0.2
2017-Jul-19 12:59N 40°50' E 014°15'510.4
2017-Jul-19 12:30N 40°47' E 014°11'2 0.1
2017-Jul-18 12:37N 40°48' E 014°14'  

Dump ship's entire track history